Latest Weather Observations for Ngukurr AWS

IDD60801

Issued at 9:35 am CST Saturday 30 August 2014 (issued every 30 minutes, with the page automatically refreshed every 10 minutes)

About weather observations | Map of weather stations | Latest weather observations for NT | Other Formats
Station Details ID: 014299 Name: NGUKURR AIRPORT Lat: -14.72 Lon: 134.75 Height: 14.46 m
Data from the previous 72 hours. | See also: Recent months at Ngukurr AWS
Date/Time
CST
Temp
°C
App
Temp
°C
Dew
Point
Rel
Hum
%
Delta-T
°C
Wind Press
QNH
hPa
Press
MSL
hPa
Rain
since 9 am
mm
Dir
 
Spd
km/h
Gust
km/h
Spd
kts
Gust
kts
30/09:30am 21.3 23.3 17.9 81 2.1 S 4 7 2 4 1017.7 1017.7 0.0
30/09:00am 19.3 22.0 18.6 96 0.4 WSW 2 6 1 3 1017.4 1017.4 0.0
30/08:30am 18.3 20.4 18.0 98 0.2 S 4 7 2 4 1017.4 1017.4 0.0
30/08:00am 18.3 20.7 18.0 98 0.2 SSE 2 4 1 2 1017.2 1017.2 0.0
30/07:30am 18.2 21.0 17.9 98 0.2 CALM 0 2 0 1 1016.9 1016.9 0.0
30/07:00am 18.2 21.0 18.0 99 0.1 CALM 0 0 0 0 1016.5 1016.5 0.0
30/06:30am 18.2 20.6 18.0 99 0.1 NE 2 4 1 2 1016.2 1016.2 0.0
30/06:00am 18.2 19.9 18.0 99 0.1 E 6 9 3 5 1016.0 1016.0 0.0
30/05:30am 18.1 20.4 17.8 98 0.2 E 2 4 1 2 1015.7 1015.7 0.0
30/05:00am 17.8 19.6 17.5 98 0.2 SE 4 4 2 2 1015.6 1015.6 0.0
30/04:30am 17.8 20.0 17.5 98 0.2 SE 2 4 1 2 1015.5 1015.5 0.0
30/04:00am 17.5 20.0 17.2 98 0.2 CALM 0 0 0 0 1015.5 1015.5 0.0
30/03:30am 17.4 19.8 17.1 98 0.2 CALM 0 4 0 2 1015.4 1015.4 0.0
30/03:00am 17.4 18.3 16.1 92 0.8 SE 6 7 3 4 1015.6 1015.6 0.0
30/02:30am 16.9 17.7 13.8 82 1.8 SE 2 4 1 2 1015.5 1015.5 0.0
30/02:00am 14.4 13.0 7.2 62 3.5 SSE 4 4 2 2 1015.4 1015.4 0.0
30/01:30am 15.0 14.5 10.8 76 2.2 S 4 4 2 2 1015.5 1015.5 0.0
30/01:00am 15.1 14.8 8.6 65 3.3 S 0 6 0 3 1015.5 1015.5 0.0
30/12:30am 15.1 14.0 5.0 51 4.7 CALM 0 2 0 1 1015.5 1015.5 0.0
30/12:00am 15.4 13.9 4.8 49 5.0 ESE 2 4 1 2 1015.5 1015.5 0.0
 
Date/Time
CST
Temp
°C
App
Temp
°C
Dew
Point
Rel
Hum
%
Delta-T
°C
Wind Press
QNH
hPa
Press
MSL
hPa
Rain
since 9 am
mm
Dir
 
Spd
km/h
Gust
km/h
Spd
kts
Gust
kts
29/11:30pm 15.7 14.3 3.8 45 5.5 CALM 0 2 0 1 1015.6 1015.6 0.0
29/11:00pm 16.3 14.1 3.4 42 5.9 ESE 4 6 2 3 1015.7 1015.7 0.0
29/10:30pm 16.4 14.9 2.8 40 6.2 CALM 0 2 0 1 1015.8 1015.8 0.0
29/10:00pm 17.8 15.0 2.2 35 7.1 SSE 6 7 3 4 1015.7 1015.7 0.0
29/09:30pm 17.9 15.4 1.4 33 7.4 SSE 4 6 2 3 1015.7 1015.7 0.0
29/09:00pm 19.2 17.0 1.2 30 8.1 SSE 2 6 1 3 1015.6 1015.6 0.0
29/08:30pm 20.3 18.4 0.7 27 8.8 CALM 0 0 0 0 1015.2 1015.2 0.0
29/08:00pm 21.6 19.4 1.3 26 9.3 E 2 2 1 1 1015.0 1015.0 0.0
29/07:30pm 22.9 20.2 0.1 22 10.3 ENE 4 6 2 3 1014.7 1014.7 0.0
29/07:00pm 24.8 21.7 0.3 20 11.3 NE 6 7 3 4 1014.4 1014.4 0.0
29/06:30pm 26.1 22.8 0.0 18 12.1 NE 7 11 4 6 1014.0 1014.0 0.0
29/06:00pm 27.5 22.9 -1.4 15 13.2 NE 13 22 7 12 1013.9 1013.9 0.0
29/05:30pm 28.3 22.5 -1.7 14 13.7 NE 19 26 10 14 1013.8 1013.8 0.0
29/05:00pm 29.1 23.4 -1.1 14 14.1 NE 19 26 10 14 1013.6 1013.6 0.0
29/04:30pm 29.6 23.2 -1.7 13 14.5 NE 22 32 12 17 1013.4 1013.4 0.0
29/04:00pm 30.3 24.3 -1.2 13 14.8 ENE 20 35 11 19 1013.5 1013.5 0.0
29/03:30pm 30.6 23.9 -0.9 13 14.9 E 24 35 13 19 1013.4 1013.4 0.0
29/03:00pm 31.1 24.9 -2.8 11 15.5 NE 20 32 11 17 1013.5 1013.5 0.0
29/02:30pm 31.5 25.4 -2.5 11 15.7 E 20 30 11 16 1013.7 1013.7 0.0
29/02:00pm 31.8 25.9 -2.3 11 15.9 ENE 19 32 10 17 1013.8 1013.8 0.0
29/01:30pm 31.8 26.1 -3.5 10 16.1 ENE 17 24 9 13 1014.1 1014.1 0.0
29/01:00pm 31.3 27.3 -2.6 11 15.6 E 9 15 5 8 1014.7 1014.7 0.0
29/12:30pm 31.2 25.6 -2.7 11 15.6 E 17 32 9 17 1015.1 1015.1 0.0
29/12:00pm 30.5 25.6 -3.3 11 15.3 E 13 26 7 14 1015.9 1015.9 0.0
29/11:30am 29.9 25.2 -1.5 13 14.6 ESE 13 24 7 13 1016.3 1016.3 0.0
29/11:00am 29.8 24.6 0.4 15 14.1 ESE 17 32 9 17 1016.6 1016.6 0.0
29/10:30am 27.8 24.2 2.8 20 12.3 ESE 11 20 6 11 1016.9 1016.9 0.0
29/10:00am 25.5 23.8 7.6 32 9.5 ESE 6 11 3 6 1017.2 1017.2 0.0
29/09:30am 22.8 22.4 9.9 44 7.0 NNW 2 6 1 3 1017.2 1017.2 0.0
29/09:00am 20.4 19.5 10.5 53 5.4 S 6 7 3 4 1017.1 1017.1 0.0
29/08:30am 18.6 19.0 11.2 62 4.0 CALM 0 0 0 0 1017.0 1017.0 0.0
29/08:00am 16.4 17.0 11.8 74 2.5 CALM 0 0 0 0 1016.9 1016.9 0.0
29/07:30am 12.2 12.3 10.3 88 1.0 CALM 0 0 0 0 1016.9 1016.9 0.0
29/07:00am 10.0 9.5 7.8 86 1.1 CALM 0 0 0 0 1016.6 1016.6 0.0
29/06:30am 9.4 8.5 7.8 90 0.8 W 2 2 1 1 1016.3 1016.3 0.0
29/06:00am 9.8 9.4 8.4 91 0.7 CALM 0 4 0 2 1016.0 1016.0 0.0
29/05:30am 10.3 9.4 9.1 92 0.6 S 4 6 2 3 1015.8 1015.8 0.0
29/05:00am 10.7 10.4 8.8 88 0.9 CALM 0 0 0 0 1015.7 1015.7 0.0
29/04:30am 10.5 9.9 7.2 80 1.6 CALM 0 0 0 0 1015.5 1015.5 0.0
29/04:00am 11.6 10.9 10.2 91 0.7 SSE 4 6 2 3 1015.3 1015.3 0.0
29/03:30am 10.9 10.1 8.0 82 1.4 SE 2 7 1 4 1015.3 1015.3 0.0
29/03:00am 11.3 10.9 8.2 81 1.5 CALM 0 0 0 0 1015.2 1015.2 0.0
29/02:30am 11.5 10.9 7.6 77 1.9 CALM 0 0 0 0 1015.3 1015.3 0.0
29/02:00am 12.1 11.4 7.0 71 2.4 CALM 0 0 0 0 1015.5 1015.5 0.0
29/01:30am 12.9 12.7 9.2 78 1.9 CALM 0 0 0 0 1015.8 1015.8 0.0
29/01:00am 13.4 13.3 9.5 77 2.0 CALM 0 0 0 0 1016.3 1016.3 0.0
29/12:30am 14.2 13.7 7.9 66 3.1 CALM 0 2 0 1 1016.5 1016.5 0.0
29/12:00am 14.7 14.0 9.9 73 2.5 SSE 4 4 2 2 1016.5 1016.5 0.0
 
Date/Time
CST
Temp
°C
App
Temp
°C
Dew
Point
Rel
Hum
%
Delta-T
°C
Wind Press
QNH
hPa
Press
MSL
hPa
Rain
since 9 am
mm
Dir
 
Spd
km/h
Gust
km/h
Spd
kts
Gust
kts
28/11:30pm 15.2 15.0 9.1 67 3.1 CALM 0 4 0 2 1016.6 1016.6 0.0
28/11:00pm 16.0 14.9 9.9 67 3.2 S 6 7 3 4 1016.6 1016.6 0.0
28/10:30pm 16.1 16.0 9.5 65 3.4 CALM 0 0 0 0 1016.5 1016.5 0.0
28/10:00pm 16.9 16.6 8.6 58 4.3 CALM 0 0 0 0 1016.4 1016.4 0.0
28/09:30pm 17.4 15.5 6.9 50 5.2 SE 6 6 3 3 1016.4 1016.4 0.0
28/09:00pm 18.4 17.7 6.9 47 5.8 CALM 0 0 0 0 1016.3 1016.3 0.0
28/08:30pm 19.1 17.2 4.8 39 6.9 E 4 6 2 3 1016.0 1016.0 0.0
28/08:00pm 21.1 18.9 5.1 35 7.9 E 6 7 3 4 1015.8 1015.8 0.0
28/07:30pm 22.3 19.4 4.4 31 8.8 ENE 9 11 5 6 1015.6 1015.6 0.0
28/07:00pm 23.5 19.6 3.4 27 9.7 E 13 19 7 10 1015.3 1015.3 0.0
28/06:30pm 24.4 20.0 2.5 24 10.5 E 15 20 8 11 1015.2 1015.2 0.0
28/06:00pm 25.6 20.7 1.7 21 11.4 ENE 17 28 9 15 1014.9 1014.9 0.0
28/05:30pm 26.9 20.7 -0.2 17 12.6 E 22 32 12 17 1014.7 1014.7 0.0
28/05:00pm 27.5 20.8 -1.4 15 13.2 E 24 32 13 17 1014.4 1014.4 0.0
28/04:30pm 27.9 21.6 1.4 18 12.8 ENE 24 33 13 18 1014.1 1014.1 0.0
28/04:00pm 28.6 22.2 1.2 17 13.2 E 24 37 13 20 1014.1 1014.1 0.0
28/03:30pm 28.9 22.6 1.4 17 13.3 E 24 35 13 19 1014.0 1014.0 0.0
28/03:00pm 29.4 23.0 1.0 16 13.7 E 24 32 13 17 1014.2 1014.2 0.0
28/02:30pm 29.4 22.3 -0.9 14 14.2 E 26 37 14 20 1014.3 1014.3 0.0
28/02:00pm 29.8 22.8 -0.5 14 14.3 E 26 37 14 20 1014.6 1014.6 0.0
28/01:30pm 30.2 23.7 -2.3 12 14.9 E 22 37 12 20 1014.9 1014.9 0.0
28/01:00pm 30.3 23.5 -4.7 10 15.4 E 22 46 12 25 1015.3 1015.3 0.0
28/12:30pm 30.2 23.7 -6.1 9 15.6 E 20 32 11 17 1015.6 1015.6 0.0
28/12:00pm 29.9 23.0 -6.4 9 15.5 E 22 33 12 18 1016.1 1016.1 0.0
28/11:30am 29.1 21.9 -5.6 10 14.9 ESE 24 35 13 19 1016.6 1016.6 0.0
28/11:00am 28.5 21.0 -4.8 11 14.4 ESE 26 37 14 20 1017.0 1017.0 0.0
28/10:30am 28.2 21.3 -2.8 13 13.9 E 24 35 13 19 1017.4 1017.4 0.0
28/10:00am 26.4 21.8 1.7 20 11.8 SE 15 22 8 12 1017.6 1017.6 0.0
28/09:30am 24.9 21.4 3.5 25 10.5 E 11 20 6 11 1017.7 1017.7 0.0
28/09:00am 22.4 20.8 8.1 40 7.5 SE 6 13 3 7 1017.7 1017.7 0.0
28/08:30am 19.4 18.1 7.8 47 5.9 ENE 4 7 2 4 1017.7 1017.7 0.0
28/08:00am 16.2 16.0 9.2 63 3.6 CALM 0 0 0 0 1017.4 1017.4 0.0
28/07:30am 12.9 12.4 8.0 72 2.4 CALM 0 0 0 0 1017.2 1017.2 0.0
28/07:00am 10.1 9.4 7.0 81 1.5 CALM 0 0 0 0 1016.9 1016.9 0.0
28/06:30am 9.7 8.8 6.1 78 1.7 CALM 0 0 0 0 1016.5 1016.5 0.0
28/06:00am 9.8 8.9 6.2 78 1.7 CALM 0 0 0 0 1016.3 1016.3 0.0
28/05:30am 10.1 9.2 6.1 76 1.8 CALM 0 0 0 0 1016.2 1016.2 0.0
28/05:00am 10.2 9.3 6.2 76 1.9 CALM 0 0 0 0 1015.8 1015.8 0.0
28/04:30am 10.4 9.5 6.2 75 2.0 CALM 0 0 0 0 1015.8 1015.8 0.0
28/04:00am 10.6 9.8 6.7 77 1.8 CALM 0 0 0 0 1015.8 1015.8 0.0
28/03:30am 11.3 10.4 6.0 70 2.5 CALM 0 0 0 0 1015.9 1015.9 0.0
28/03:00am 11.6 10.8 6.3 70 2.5 CALM 0 0 0 0 1015.8 1015.8 0.0
28/02:30am 11.7 10.2 7.0 73 2.2 S 4 4 2 2 1015.9 1015.9 0.0
28/02:00am 12.2 11.2 5.8 65 3.0 CALM 0 2 0 1 1016.2 1016.2 0.0
28/01:30am 12.1 11.2 6.2 67 2.8 CALM 0 0 0 0 1016.4 1016.4 0.0
28/01:00am 12.6 11.6 5.8 63 3.2 CALM 0 0 0 0 1016.5 1016.5 0.0
28/12:30am 13.1 12.1 5.5 60 3.6 CALM 0 0 0 0 1016.7 1016.7 0.0
28/12:00am 13.5 12.5 5.7 59 3.7 CALM 0 0 0 0 1016.8 1016.8 0.0
 
Date/Time
CST
Temp
°C
App
Temp
°C
Dew
Point
Rel
Hum
%
Delta-T
°C
Wind Press
QNH
hPa
Press
MSL
hPa
Rain
since 9 am
mm
Dir
 
Spd
km/h
Gust
km/h
Spd
kts
Gust
kts
27/11:30pm 14.1 13.0 4.9 54 4.3 CALM 0 2 0 1 1016.7 1016.7 0.0
27/11:00pm 14.7 13.2 5.0 52 4.5 SSW 2 4 1 2 1016.5 1016.5 0.0
27/10:30pm 15.5 14.5 5.4 51 4.8 CALM 0 0 0 0 1016.6 1016.6 0.0
27/10:00pm 16.4 15.2 4.8 46 5.5 CALM 0 0 0 0 1016.7 1016.7 0.0
27/09:30pm 17.4 16.4 5.4 45 5.8 CALM 0 0 0 0 1016.5 1016.5 0.0
27/09:00pm 18.6 16.7 5.1 41 6.5 E 4 6 2 3 1016.3 1016.3 0.0
27/08:30pm 19.3 18.1 4.6 38 7.1 CALM 0 0 0 0 1016.1 1016.1 0.0
27/08:00pm 19.9 18.5 3.6 34 7.7 CALM 0 0 0 0 1015.7 1015.7 0.0
27/07:30pm 22.3 20.3 4.4 31 8.8 ENE 4 7 2 4 1015.2 1015.2 0.0
27/07:00pm 23.1 20.0 3.6 28 9.5 E 9 15 5 8 1014.8 1014.8 0.0
27/06:30pm 24.6 19.5 3.3 25 10.4 E 19 28 10 15 1014.5 1014.5 0.0
27/06:00pm 25.8 20.3 1.8 21 11.5 E 20 33 11 18 1014.2 1014.2 0.0
27/05:30pm 27.1 20.6 0.0 17 12.7 ENE 24 32 13 17 1013.9 1013.9 0.0
27/05:00pm 28.3 22.0 -0.8 15 13.5 E 22 37 12 20 1013.7 1013.7 0.0
27/04:30pm 29.0 22.3 -1.2 14 14.0 ENE 24 37 13 20 1013.6 1013.6 0.0
27/04:00pm 29.1 21.8 -3.2 12 14.5 ENE 26 39 14 21 1013.5 1013.5 0.0
27/03:30pm 30.3 23.7 -0.1 14 14.5 E 24 37 13 20 1013.6 1013.6 0.0
27/03:00pm 29.7 22.7 -0.6 14 14.3 ENE 26 35 14 19 1013.8 1013.8 0.0
27/02:30pm 30.1 23.0 -1.3 13 14.7 ENE 26 39 14 21 1014.1 1014.1 0.0
27/02:00pm 30.9 23.6 -3.0 11 15.5 ENE 26 44 14 24 1014.5 1014.5 0.0
27/01:30pm 31.0 23.5 -4.1 10 15.7 ENE 26 35 14 19 1014.8 1014.8 0.0
27/01:00pm 31.1 25.3 -1.6 12 15.3 ESE 19 28 10 15 1015.2 1015.2 0.0
27/12:30pm 30.5 24.4 -2.1 12 15.1 ESE 20 35 11 19 1015.6 1015.6 0.0
27/12:00pm 30.3 24.1 -3.4 11 15.2 ESE 20 32 11 17 1016.0 1016.0 0.0
27/11:30am 29.6 23.3 -0.7 14 14.2 E 22 35 12 19 1016.3 1016.3 0.0
27/11:00am 28.8 22.7 0.5 16 13.5 ESE 22 35 12 19 1016.7 1016.7 0.0
27/10:30am 27.8 22.6 3.5 21 12.1 ESE 20 39 11 21 1017.0 1017.0 0.0
27/10:00am 26.6 22.7 7.1 29 10.3 SE 17 28 9 15 1017.2 1017.2 0.0

Other Formats:

Comma delimited format used in spreadsheet applications
http://www.bom.gov.au/fwo/IDD60801/IDD60801.94106.axf

JavaScript Object Notation format (JSON) in row-major order
http://www.bom.gov.au/fwo/IDD60801/IDD60801.94106.json